sensor_id;sensor_type;location;lat;lon;timestamp;P1;durP1;ratioP1;P2;durP2;ratioP2
12429;SDS011;6279;42.192;24.326;2022-09-09T00:00:49;10.20;;;9.07;;
12429;SDS011;6279;42.192;24.326;2022-09-09T00:03:25;10.90;;;9.33;;
12429;SDS011;6279;42.192;24.326;2022-09-09T00:08:21;11.30;;;9.33;;
12429;SDS011;6279;42.192;24.326;2022-09-09T00:10:58;13.43;;;9.80;;
12429;SDS011;6279;42.192;24.326;2022-09-09T00:16:34;10.60;;;9.50;;
12429;SDS011;6279;42.192;24.326;2022-09-09T00:19:19;13.50;;;9.47;;
12429;SDS011;6279;42.192;24.326;2022-09-09T00:24:46;13.40;;;9.50;;
12429;SDS011;6279;42.192;24.326;2022-09-09T00:29:54;10.93;;;9.30;;
12429;SDS011;6279;42.192;24.326;2022-09-09T00:32:22;13.63;;;9.30;;
12429;SDS011;6279;42.192;24.326;2022-09-09T00:34:55;9.80;;;8.90;;
12429;SDS011;6279;42.192;24.326;2022-09-09T00:37:24;11.00;;;9.23;;
12429;SDS011;6279;42.192;24.326;2022-09-09T00:39:53;11.07;;;8.80;;
12429;SDS011;6279;42.192;24.326;2022-09-09T00:44:59;9.53;;;8.53;;
12429;SDS011;6279;42.192;24.326;2022-09-09T00:47:38;9.40;;;8.40;;
12429;SDS011;6279;42.192;24.326;2022-09-09T00:56:05;10.33;;;9.33;;
12429;SDS011;6279;42.192;24.326;2022-09-09T00:58:38;13.43;;;9.33;;
12429;SDS011;6279;42.192;24.326;2022-09-09T01:01:04;10.00;;;8.60;;
12429;SDS011;6279;42.192;24.326;2022-09-09T01:09:02;11.40;;;9.03;;
12429;SDS011;6279;42.192;24.326;2022-09-09T01:11:33;10.10;;;9.03;;
12429;SDS011;6279;42.192;24.326;2022-09-09T01:17:23;13.53;;;9.13;;
12429;SDS011;6279;42.192;24.326;2022-09-09T01:19:49;10.93;;;8.90;;
12429;SDS011;6279;42.192;24.326;2022-09-09T01:27:33;11.20;;;8.27;;
12429;SDS011;6279;42.192;24.326;2022-09-09T01:30:01;9.83;;;8.90;;
12429;SDS011;6279;42.192;24.326;2022-09-09T01:32:46;8.30;;;6.70;;
12429;SDS011;6279;42.192;24.326;2022-09-09T01:37:55;10.20;;;9.20;;
12429;SDS011;6279;42.192;24.326;2022-09-09T01:40:21;10.53;;;9.13;;
12429;SDS011;6279;42.192;24.326;2022-09-09T01:42:46;9.93;;;8.93;;
12429;SDS011;6279;42.192;24.326;2022-09-09T01:45:12;11.27;;;9.53;;
12429;SDS011;6279;42.192;24.326;2022-09-09T01:47:37;10.87;;;9.60;;
12429;SDS011;6279;42.192;24.326;2022-09-09T01:50:03;10.33;;;9.40;;
12429;SDS011;6279;42.192;24.326;2022-09-09T01:52:29;12.37;;;9.93;;
12429;SDS011;6279;42.192;24.326;2022-09-09T01:54:58;10.90;;;9.90;;
12429;SDS011;6279;42.192;24.326;2022-09-09T01:57:33;14.80;;;9.73;;
12429;SDS011;6279;42.192;24.326;2022-09-09T02:00:12;11.60;;;9.87;;
12429;SDS011;6279;42.192;24.326;2022-09-09T02:05:37;15.30;;;9.93;;
12429;SDS011;6279;42.192;24.326;2022-09-09T02:08:06;10.47;;;9.37;;
12429;SDS011;6279;42.192;24.326;2022-09-09T02:10:52;12.97;;;9.33;;
12429;SDS011;6279;42.192;24.326;2022-09-09T02:13:21;11.23;;;8.97;;
12429;SDS011;6279;42.192;24.326;2022-09-09T02:18:13;11.33;;;10.30;;
12429;SDS011;6279;42.192;24.326;2022-09-09T02:20:42;11.73;;;10.47;;
12429;SDS011;6279;42.192;24.326;2022-09-09T02:23:10;12.00;;;10.80;;
12429;SDS011;6279;42.192;24.326;2022-09-09T02:25:37;14.13;;;11.23;;
12429;SDS011;6279;42.192;24.326;2022-09-09T02:28:06;12.17;;;10.40;;
12429;SDS011;6279;42.192;24.326;2022-09-09T02:30:34;11.80;;;10.60;;
12429;SDS011;6279;42.192;24.326;2022-09-09T02:33:04;10.70;;;9.60;;
12429;SDS011;6279;42.192;24.326;2022-09-09T02:35:32;11.23;;;10.23;;
12429;SDS011;6279;42.192;24.326;2022-09-09T02:38:03;11.33;;;10.23;;
12429;SDS011;6279;42.192;24.326;2022-09-09T02:40:32;11.97;;;10.33;;
12429;SDS011;6279;42.192;24.326;2022-09-09T02:42:57;11.50;;;10.23;;
12429;SDS011;6279;42.192;24.326;2022-09-09T02:45:26;12.00;;;9.93;;
12429;SDS011;6279;42.192;24.326;2022-09-09T02:50:54;10.90;;;9.90;;
12429;SDS011;6279;42.192;24.326;2022-09-09T02:56:05;12.47;;;9.37;;
12429;SDS011;6279;42.192;24.326;2022-09-09T02:58:37;11.10;;;9.30;;
12429;SDS011;6279;42.192;24.326;2022-09-09T03:01:02;10.70;;;9.33;;
12429;SDS011;6279;42.192;24.326;2022-09-09T03:03:28;11.47;;;9.20;;
12429;SDS011;6279;42.192;24.326;2022-09-09T03:05:54;11.03;;;9.47;;
12429;SDS011;6279;42.192;24.326;2022-09-09T03:08:19;12.70;;;8.67;;
12429;SDS011;6279;42.192;24.326;2022-09-09T03:10:48;9.80;;;8.80;;
12429;SDS011;6279;42.192;24.326;2022-09-09T03:13:14;10.23;;;9.07;;
12429;SDS011;6279;42.192;24.326;2022-09-09T03:15:40;15.67;;;9.23;;
12429;SDS011;6279;42.192;24.326;2022-09-09T03:18:06;9.77;;;8.87;;
12429;SDS011;6279;42.192;24.326;2022-09-09T03:20:32;10.13;;;9.00;;
12429;SDS011;6279;42.192;24.326;2022-09-09T03:22:59;9.43;;;8.43;;
12429;SDS011;6279;42.192;24.326;2022-09-09T03:25:28;14.83;;;8.97;;
12429;SDS011;6279;42.192;24.326;2022-09-09T03:27:56;10.20;;;8.90;;
12429;SDS011;6279;42.192;24.326;2022-09-09T03:30:22;9.87;;;8.27;;
12429;SDS011;6279;42.192;24.326;2022-09-09T03:32:49;14.60;;;9.43;;
12429;SDS011;6279;42.192;24.326;2022-09-09T03:35:15;12.17;;;10.90;;
12429;SDS011;6279;42.192;24.326;2022-09-09T03:37:41;11.27;;;9.70;;
12429;SDS011;6279;42.192;24.326;2022-09-09T03:40:07;17.83;;;11.03;;
12429;SDS011;6279;42.192;24.326;2022-09-09T03:42:35;11.07;;;10.07;;
12429;SDS011;6279;42.192;24.326;2022-09-09T03:45:02;11.30;;;10.10;;
12429;SDS011;6279;42.192;24.326;2022-09-09T03:47:29;12.43;;;10.37;;
12429;SDS011;6279;42.192;24.326;2022-09-09T03:49:54;16.77;;;10.33;;
12429;SDS011;6279;42.192;24.326;2022-09-09T03:52:20;13.47;;;10.57;;
12429;SDS011;6279;42.192;24.326;2022-09-09T03:54:49;12.77;;;10.47;;
12429;SDS011;6279;42.192;24.326;2022-09-09T03:57:16;14.10;;;10.40;;
12429;SDS011;6279;42.192;24.326;2022-09-09T03:59:42;12.73;;;10.50;;
12429;SDS011;6279;42.192;24.326;2022-09-09T04:02:08;13.97;;;9.60;;
12429;SDS011;6279;42.192;24.326;2022-09-09T04:04:34;12.17;;;10.17;;
12429;SDS011;6279;42.192;24.326;2022-09-09T04:06:59;12.33;;;10.47;;
12429;SDS011;6279;42.192;24.326;2022-09-09T04:09:25;13.80;;;9.93;;
12429;SDS011;6279;42.192;24.326;2022-09-09T04:11:51;13.50;;;10.10;;
12429;SDS011;6279;42.192;24.326;2022-09-09T04:14:18;13.63;;;10.33;;
12429;SDS011;6279;42.192;24.326;2022-09-09T04:16:43;11.37;;;9.80;;
12429;SDS011;6279;42.192;24.326;2022-09-09T04:19:09;11.27;;;10.03;;
12429;SDS011;6279;42.192;24.326;2022-09-09T04:21:37;11.83;;;9.13;;
12429;SDS011;6279;42.192;24.326;2022-09-09T04:24:05;15.70;;;9.63;;
12429;SDS011;6279;42.192;24.326;2022-09-09T04:26:31;10.27;;;8.63;;
12429;SDS011;6279;42.192;24.326;2022-09-09T04:28:57;14.33;;;9.77;;
12429;SDS011;6279;42.192;24.326;2022-09-09T04:31:22;12.13;;;9.67;;
12429;SDS011;6279;42.192;24.326;2022-09-09T04:33:51;13.07;;;9.50;;
12429;SDS011;6279;42.192;24.326;2022-09-09T04:36:20;12.10;;;9.63;;
12429;SDS011;6279;42.192;24.326;2022-09-09T04:38:46;15.47;;;10.10;;
12429;SDS011;6279;42.192;24.326;2022-09-09T04:41:13;11.23;;;9.97;;
12429;SDS011;6279;42.192;24.326;2022-09-09T04:43:39;10.77;;;9.67;;
12429;SDS011;6279;42.192;24.326;2022-09-09T04:46:05;13.20;;;9.13;;
12429;SDS011;6279;42.192;24.326;2022-09-09T04:48:31;10.13;;;9.07;;
12429;SDS011;6279;42.192;24.326;2022-09-09T04:51:14;15.63;;;10.00;;
12429;SDS011;6279;42.192;24.326;2022-09-09T04:53:40;11.83;;;10.23;;
12429;SDS011;6279;42.192;24.326;2022-09-09T04:56:13;14.33;;;10.10;;
12429;SDS011;6279;42.192;24.326;2022-09-09T04:58:40;12.67;;;9.67;;
12429;SDS011;6279;42.192;24.326;2022-09-09T05:01:15;14.53;;;9.43;;
12429;SDS011;6279;42.192;24.326;2022-09-09T05:03:43;15.97;;;8.67;;
12429;SDS011;6279;42.192;24.326;2022-09-09T05:06:11;13.33;;;9.40;;
12429;SDS011;6279;42.192;24.326;2022-09-09T05:08:41;15.97;;;8.67;;
12429;SDS011;6279;42.192;24.326;2022-09-09T05:11:20;11.87;;;8.93;;
12429;SDS011;6279;42.192;24.326;2022-09-09T05:13:50;11.60;;;8.83;;
12429;SDS011;6279;42.192;24.326;2022-09-09T05:16:17;10.60;;;8.77;;
12429;SDS011;6279;42.192;24.326;2022-09-09T05:18:43;11.67;;;9.37;;
12429;SDS011;6279;42.192;24.326;2022-09-09T05:21:09;11.63;;;8.90;;
12429;SDS011;6279;42.192;24.326;2022-09-09T05:23:36;9.53;;;8.33;;
12429;SDS011;6279;42.192;24.326;2022-09-09T05:26:02;15.23;;;8.57;;
12429;SDS011;6279;42.192;24.326;2022-09-09T05:28:28;13.03;;;9.37;;
12429;SDS011;6279;42.192;24.326;2022-09-09T05:30:58;12.13;;;8.67;;
12429;SDS011;6279;42.192;24.326;2022-09-09T05:33:33;15.93;;;9.30;;
12429;SDS011;6279;42.192;24.326;2022-09-09T05:36:13;11.17;;;8.97;;
12429;SDS011;6279;42.192;24.326;2022-09-09T05:38:40;14.00;;;8.67;;
12429;SDS011;6279;42.192;24.326;2022-09-09T05:41:06;10.23;;;8.40;;
12429;SDS011;6279;42.192;24.326;2022-09-09T05:43:33;11.23;;;8.70;;
12429;SDS011;6279;42.192;24.326;2022-09-09T05:46:07;17.83;;;8.97;;
12429;SDS011;6279;42.192;24.326;2022-09-09T05:48:38;18.00;;;7.90;;
12429;SDS011;6279;42.192;24.326;2022-09-09T05:51:05;10.70;;;7.77;;
12429;SDS011;6279;42.192;24.326;2022-09-09T05:53:33;12.53;;;8.60;;
12429;SDS011;6279;42.192;24.326;2022-09-09T05:56:03;12.97;;;7.80;;
12429;SDS011;6279;42.192;24.326;2022-09-09T05:58:30;13.47;;;7.53;;
12429;SDS011;6279;42.192;24.326;2022-09-09T06:03:32;9.90;;;7.07;;
12429;SDS011;6279;42.192;24.326;2022-09-09T06:06:03;12.70;;;7.23;;
12429;SDS011;6279;42.192;24.326;2022-09-09T06:08:30;10.73;;;6.70;;
12429;SDS011;6279;42.192;24.326;2022-09-09T06:11:00;10.57;;;6.87;;
12429;SDS011;6279;42.192;24.326;2022-09-09T06:13:28;10.43;;;6.20;;
12429;SDS011;6279;42.192;24.326;2022-09-09T06:15:53;9.87;;;6.37;;
12429;SDS011;6279;42.192;24.326;2022-09-09T06:18:18;9.23;;;5.40;;
12429;SDS011;6279;42.192;24.326;2022-09-09T06:20:54;10.77;;;6.10;;
12429;SDS011;6279;42.192;24.326;2022-09-09T06:23:19;8.53;;;5.00;;
12429;SDS011;6279;42.192;24.326;2022-09-09T06:25:45;8.73;;;5.07;;
12429;SDS011;6279;42.192;24.326;2022-09-09T06:28:11;7.83;;;5.00;;
12429;SDS011;6279;42.192;24.326;2022-09-09T06:30:36;6.70;;;4.73;;
12429;SDS011;6279;42.192;24.326;2022-09-09T06:33:01;7.43;;;4.60;;
12429;SDS011;6279;42.192;24.326;2022-09-09T06:35:27;8.40;;;4.63;;
12429;SDS011;6279;42.192;24.326;2022-09-09T06:37:53;7.22;;;3.70;;
12429;SDS011;6279;42.192;24.326;2022-09-09T06:40:19;5.05;;;4.05;;
12429;SDS011;6279;42.192;24.326;2022-09-09T06:42:44;5.65;;;3.63;;
12429;SDS011;6279;42.192;24.326;2022-09-09T06:45:09;5.35;;;4.07;;
12429;SDS011;6279;42.192;24.326;2022-09-09T06:47:35;4.70;;;3.33;;
12429;SDS011;6279;42.192;24.326;2022-09-09T06:50:01;4.75;;;4.07;;
12429;SDS011;6279;42.192;24.326;2022-09-09T06:52:26;5.03;;;3.75;;
12429;SDS011;6279;42.192;24.326;2022-09-09T06:54:52;3.63;;;2.80;;
12429;SDS011;6279;42.192;24.326;2022-09-09T06:57:18;5.65;;;3.05;;
12429;SDS011;6279;42.192;24.326;2022-09-09T06:59:43;6.18;;;4.38;;
12429;SDS011;6279;42.192;24.326;2022-09-09T07:02:09;6.97;;;3.50;;
12429;SDS011;6279;42.192;24.326;2022-09-09T07:04:35;6.97;;;2.65;;
12429;SDS011;6279;42.192;24.326;2022-09-09T07:07:02;5.25;;;3.22;;
12429;SDS011;6279;42.192;24.326;2022-09-09T07:09:27;6.05;;;3.58;;
12429;SDS011;6279;42.192;24.326;2022-09-09T07:11:54;3.75;;;2.67;;
12429;SDS011;6279;42.192;24.326;2022-09-09T07:14:19;3.70;;;2.72;;
12429;SDS011;6279;42.192;24.326;2022-09-09T07:16:45;5.07;;;2.60;;
12429;SDS011;6279;42.192;24.326;2022-09-09T07:19:11;4.70;;;2.83;;
12429;SDS011;6279;42.192;24.326;2022-09-09T07:21:39;4.82;;;2.40;;
12429;SDS011;6279;42.192;24.326;2022-09-09T07:24:07;6.65;;;3.45;;
12429;SDS011;6279;42.192;24.326;2022-09-09T07:26:35;3.55;;;2.30;;
12429;SDS011;6279;42.192;24.326;2022-09-09T07:29:01;6.03;;;3.30;;
12429;SDS011;6279;42.192;24.326;2022-09-09T07:31:28;3.85;;;2.47;;
12429;SDS011;6279;42.192;24.326;2022-09-09T07:33:58;4.75;;;2.83;;
12429;SDS011;6279;42.192;24.326;2022-09-09T07:36:25;2.92;;;2.20;;
12429;SDS011;6279;42.192;24.326;2022-09-09T07:38:56;6.22;;;2.92;;
12429;SDS011;6279;42.192;24.326;2022-09-09T07:41:28;7.00;;;2.63;;
12429;SDS011;6279;42.192;24.326;2022-09-09T07:43:59;5.60;;;2.72;;
12429;SDS011;6279;42.192;24.326;2022-09-09T07:46:28;5.43;;;2.60;;
12429;SDS011;6279;42.192;24.326;2022-09-09T07:48:55;3.50;;;2.33;;
12429;SDS011;6279;42.192;24.326;2022-09-09T07:51:23;3.72;;;2.55;;
12429;SDS011;6279;42.192;24.326;2022-09-09T07:53:56;5.80;;;2.47;;
12429;SDS011;6279;42.192;24.326;2022-09-09T07:56:23;4.20;;;2.33;;
12429;SDS011;6279;42.192;24.326;2022-09-09T07:58:50;3.50;;;2.38;;
12429;SDS011;6279;42.192;24.326;2022-09-09T08:01:18;3.25;;;2.38;;
12429;SDS011;6279;42.192;24.326;2022-09-09T08:03:47;5.13;;;2.58;;
12429;SDS011;6279;42.192;24.326;2022-09-09T08:06:24;5.15;;;2.53;;
12429;SDS011;6279;42.192;24.326;2022-09-09T08:08:51;4.00;;;2.22;;
12429;SDS011;6279;42.192;24.326;2022-09-09T08:11:18;4.50;;;2.53;;
12429;SDS011;6279;42.192;24.326;2022-09-09T08:13:44;4.18;;;2.40;;
12429;SDS011;6279;42.192;24.326;2022-09-09T08:16:15;4.03;;;2.42;;
12429;SDS011;6279;42.192;24.326;2022-09-09T08:18:42;5.25;;;2.58;;
12429;SDS011;6279;42.192;24.326;2022-09-09T08:21:13;7.07;;;2.60;;
12429;SDS011;6279;42.192;24.326;2022-09-09T08:23:43;4.53;;;2.30;;
12429;SDS011;6279;42.192;24.326;2022-09-09T08:26:12;4.10;;;2.63;;
12429;SDS011;6279;42.192;24.326;2022-09-09T08:28:41;4.65;;;2.90;;
12429;SDS011;6279;42.192;24.326;2022-09-09T08:33:40;3.97;;;2.53;;
12429;SDS011;6279;42.192;24.326;2022-09-09T08:36:08;4.90;;;2.50;;
12429;SDS011;6279;42.192;24.326;2022-09-09T08:38:35;4.75;;;2.50;;
12429;SDS011;6279;42.192;24.326;2022-09-09T08:43:58;3.80;;;2.63;;
12429;SDS011;6279;42.192;24.326;2022-09-09T08:46:34;4.25;;;2.40;;
12429;SDS011;6279;42.192;24.326;2022-09-09T08:52:08;4.72;;;2.60;;
12429;SDS011;6279;42.192;24.326;2022-09-09T08:54:40;5.35;;;2.78;;
12429;SDS011;6279;42.192;24.326;2022-09-09T08:57:08;9.05;;;3.08;;
12429;SDS011;6279;42.192;24.326;2022-09-09T08:59:39;4.38;;;3.13;;
12429;SDS011;6279;42.192;24.326;2022-09-09T09:04:45;4.78;;;2.92;;
12429;SDS011;6279;42.192;24.326;2022-09-09T09:13:01;5.78;;;2.70;;
12429;SDS011;6279;42.192;24.326;2022-09-09T09:15:31;3.30;;;2.67;;
12429;SDS011;6279;42.192;24.326;2022-09-09T09:18:01;4.72;;;2.90;;
12429;SDS011;6279;42.192;24.326;2022-09-09T09:23:45;3.67;;;2.67;;
12429;SDS011;6279;42.192;24.326;2022-09-09T09:26:23;4.13;;;2.58;;
12429;SDS011;6279;42.192;24.326;2022-09-09T09:28:53;4.03;;;2.92;;
12429;SDS011;6279;42.192;24.326;2022-09-09T09:31:22;3.78;;;3.00;;
12429;SDS011;6279;42.192;24.326;2022-09-09T09:33:52;6.28;;;2.95;;
12429;SDS011;6279;42.192;24.326;2022-09-09T09:36:24;6.18;;;3.15;;
12429;SDS011;6279;42.192;24.326;2022-09-09T09:38:59;7.03;;;2.92;;
12429;SDS011;6279;42.192;24.326;2022-09-09T09:41:41;4.03;;;3.00;;
12429;SDS011;6279;42.192;24.326;2022-09-09T09:46:53;5.43;;;3.00;;
12429;SDS011;6279;42.192;24.326;2022-09-09T09:49:34;4.50;;;3.08;;
12429;SDS011;6279;42.192;24.326;2022-09-09T09:52:00;4.68;;;3.00;;
12429;SDS011;6279;42.192;24.326;2022-09-09T09:54:30;6.68;;;3.35;;
12429;SDS011;6279;42.192;24.326;2022-09-09T09:57:11;7.85;;;3.38;;
12429;SDS011;6279;42.192;24.326;2022-09-09T09:59:38;5.47;;;3.08;;
12429;SDS011;6279;42.192;24.326;2022-09-09T10:02:23;5.20;;;3.30;;
12429;SDS011;6279;42.192;24.326;2022-09-09T10:05:01;3.65;;;2.80;;
12429;SDS011;6279;42.192;24.326;2022-09-09T10:08:00;6.35;;;3.38;;
12429;SDS011;6279;42.192;24.326;2022-09-09T10:10:29;8.02;;;3.38;;
12429;SDS011;6279;42.192;24.326;2022-09-09T10:13:18;5.75;;;3.20;;
12429;SDS011;6279;42.192;24.326;2022-09-09T10:18:47;8.35;;;3.20;;
12429;SDS011;6279;42.192;24.326;2022-09-09T10:31:50;4.65;;;2.75;;
12429;SDS011;6279;42.192;24.326;2022-09-09T10:37:27;4.65;;;3.40;;
12429;SDS011;6279;42.192;24.326;2022-09-09T10:42:56;5.47;;;3.72;;
12429;SDS011;6279;42.192;24.326;2022-09-09T10:46:17;4.00;;;3.17;;
12429;SDS011;6279;42.192;24.326;2022-09-09T10:56:51;5.28;;;3.63;;
12429;SDS011;6279;42.192;24.326;2022-09-09T10:59:26;5.68;;;3.80;;
12429;SDS011;6279;42.192;24.326;2022-09-09T11:07:54;5.13;;;3.42;;
12429;SDS011;6279;42.192;24.326;2022-09-09T11:16:25;6.05;;;3.78;;
12429;SDS011;6279;42.192;24.326;2022-09-09T11:19:00;6.30;;;3.70;;
12429;SDS011;6279;42.192;24.326;2022-09-09T11:21:37;5.57;;;3.53;;
12429;SDS011;6279;42.192;24.326;2022-09-09T11:24:10;11.05;;;4.28;;
12429;SDS011;6279;42.192;24.326;2022-09-09T11:26:55;6.13;;;4.00;;
12429;SDS011;6279;42.192;24.326;2022-09-09T11:29:34;5.05;;;3.75;;
12429;SDS011;6279;42.192;24.326;2022-09-09T11:35:16;4.00;;;3.60;;
12429;SDS011;6279;42.192;24.326;2022-09-09T11:40:39;8.27;;;3.97;;
12429;SDS011;6279;42.192;24.326;2022-09-09T11:43:09;6.20;;;3.45;;
12429;SDS011;6279;42.192;24.326;2022-09-09T11:45:55;6.65;;;3.83;;
12429;SDS011;6279;42.192;24.326;2022-09-09T11:51:12;5.18;;;3.58;;
12429;SDS011;6279;42.192;24.326;2022-09-09T11:53:57;4.30;;;3.90;;
12429;SDS011;6279;42.192;24.326;2022-09-09T11:59:06;8.77;;;3.55;;
12429;SDS011;6279;42.192;24.326;2022-09-09T12:02:02;8.45;;;3.97;;
12429;SDS011;6279;42.192;24.326;2022-09-09T12:04:39;4.60;;;3.83;;
12429;SDS011;6279;42.192;24.326;2022-09-09T12:10:04;5.00;;;3.40;;
12429;SDS011;6279;42.192;24.326;2022-09-09T12:12:47;4.07;;;3.38;;
12429;SDS011;6279;42.192;24.326;2022-09-09T12:15:17;4.85;;;3.40;;
12429;SDS011;6279;42.192;24.326;2022-09-09T12:17:54;5.40;;;3.60;;
12429;SDS011;6279;42.192;24.326;2022-09-09T12:25:52;4.68;;;3.25;;
12429;SDS011;6279;42.192;24.326;2022-09-09T12:28:40;5.40;;;3.70;;
12429;SDS011;6279;42.192;24.326;2022-09-09T12:33:35;7.35;;;3.78;;
12429;SDS011;6279;42.192;24.326;2022-09-09T12:36:04;5.65;;;4.00;;
12429;SDS011;6279;42.192;24.326;2022-09-09T12:38:36;5.00;;;3.40;;
12429;SDS011;6279;42.192;24.326;2022-09-09T12:41:03;7.22;;;3.92;;
12429;SDS011;6279;42.192;24.326;2022-09-09T12:43:29;4.57;;;3.83;;
12429;SDS011;6279;42.192;24.326;2022-09-09T12:45:56;6.28;;;3.92;;
12429;SDS011;6279;42.192;24.326;2022-09-09T12:48:50;6.65;;;4.05;;
12429;SDS011;6279;42.192;24.326;2022-09-09T12:51:28;7.03;;;4.18;;
12429;SDS011;6279;42.192;24.326;2022-09-09T12:53:55;6.18;;;4.25;;
12429;SDS011;6279;42.192;24.326;2022-09-09T12:56:22;8.50;;;4.35;;
12429;SDS011;6279;42.192;24.326;2022-09-09T12:58:52;5.75;;;4.03;;
12429;SDS011;6279;42.192;24.326;2022-09-09T13:01:54;5.45;;;4.25;;
12429;SDS011;6279;42.192;24.326;2022-09-09T13:04:19;5.10;;;3.90;;
12429;SDS011;6279;42.192;24.326;2022-09-09T13:06:47;5.70;;;4.00;;
12429;SDS011;6279;42.192;24.326;2022-09-09T13:09:14;5.15;;;3.70;;
12429;SDS011;6279;42.192;24.326;2022-09-09T13:11:40;8.10;;;4.20;;
12429;SDS011;6279;42.192;24.326;2022-09-09T13:14:42;6.20;;;4.22;;
12429;SDS011;6279;42.192;24.326;2022-09-09T13:17:03;5.88;;;4.15;;
12429;SDS011;6279;42.192;24.326;2022-09-09T13:19:31;8.07;;;4.28;;
12429;SDS011;6279;42.192;24.326;2022-09-09T13:22:10;5.50;;;4.28;;
12429;SDS011;6279;42.192;24.326;2022-09-09T13:24:39;7.55;;;4.30;;
12429;SDS011;6279;42.192;24.326;2022-09-09T13:29:54;6.35;;;4.38;;
12429;SDS011;6279;42.192;24.326;2022-09-09T13:32:23;6.97;;;4.40;;
12429;SDS011;6279;42.192;24.326;2022-09-09T13:34:55;7.90;;;4.60;;
12429;SDS011;6279;42.192;24.326;2022-09-09T13:40:01;9.55;;;4.07;;
12429;SDS011;6279;42.192;24.326;2022-09-09T13:42:28;5.65;;;4.05;;
12429;SDS011;6279;42.192;24.326;2022-09-09T13:44:56;8.75;;;4.20;;
12429;SDS011;6279;42.192;24.326;2022-09-09T13:47:29;8.20;;;4.30;;
12429;SDS011;6279;42.192;24.326;2022-09-09T13:49:57;7.05;;;4.28;;
12429;SDS011;6279;42.192;24.326;2022-09-09T13:52:22;5.75;;;4.15;;
12429;SDS011;6279;42.192;24.326;2022-09-09T13:54:49;6.43;;;4.13;;
12429;SDS011;6279;42.192;24.326;2022-09-09T13:57:19;5.80;;;3.63;;
12429;SDS011;6279;42.192;24.326;2022-09-09T13:59:50;8.38;;;4.38;;
12429;SDS011;6279;42.192;24.326;2022-09-09T14:02:16;13.10;;;4.05;;
12429;SDS011;6279;42.192;24.326;2022-09-09T14:04:42;6.28;;;4.60;;
12429;SDS011;6279;42.192;24.326;2022-09-09T14:07:10;8.13;;;5.03;;
12429;SDS011;6279;42.192;24.326;2022-09-09T14:09:38;4.90;;;3.75;;
12429;SDS011;6279;42.192;24.326;2022-09-09T14:12:05;6.60;;;4.55;;
12429;SDS011;6279;42.192;24.326;2022-09-09T14:14:31;6.22;;;4.40;;
12429;SDS011;6279;42.192;24.326;2022-09-09T14:16:56;8.18;;;4.90;;
12429;SDS011;6279;42.192;24.326;2022-09-09T14:19:21;7.82;;;4.78;;
12429;SDS011;6279;42.192;24.326;2022-09-09T14:21:47;12.07;;;6.63;;
12429;SDS011;6279;42.192;24.326;2022-09-09T14:24:13;12.13;;;9.30;;
12429;SDS011;6279;42.192;24.326;2022-09-09T14:26:39;7.40;;;6.30;;
12429;SDS011;6279;42.192;24.326;2022-09-09T14:29:04;12.10;;;9.52;;
12429;SDS011;6279;42.192;24.326;2022-09-09T14:31:29;10.50;;;7.30;;
12429;SDS011;6279;42.192;24.326;2022-09-09T14:33:55;6.97;;;6.28;;
12429;SDS011;6279;42.192;24.326;2022-09-09T14:36:20;10.18;;;6.07;;
12429;SDS011;6279;42.192;24.326;2022-09-09T14:38:46;6.32;;;4.55;;
12429;SDS011;6279;42.192;24.326;2022-09-09T14:41:12;6.78;;;5.03;;
12429;SDS011;6279;42.192;24.326;2022-09-09T14:43:42;8.65;;;4.45;;
12429;SDS011;6279;42.192;24.326;2022-09-09T14:46:09;10.98;;;6.78;;
12429;SDS011;6279;42.192;24.326;2022-09-09T14:48:39;5.80;;;4.75;;
12429;SDS011;6279;42.192;24.326;2022-09-09T14:51:10;7.25;;;5.13;;
12429;SDS011;6279;42.192;24.326;2022-09-09T14:53:37;10.13;;;4.82;;
12429;SDS011;6279;42.192;24.326;2022-09-09T14:56:04;10.23;;;4.75;;
12429;SDS011;6279;42.192;24.326;2022-09-09T14:58:34;7.68;;;4.68;;
12429;SDS011;6279;42.192;24.326;2022-09-09T15:01:07;7.22;;;4.60;;
12429;SDS011;6279;42.192;24.326;2022-09-09T15:03:37;9.27;;;5.05;;
12429;SDS011;6279;42.192;24.326;2022-09-09T15:06:04;6.65;;;5.00;;
12429;SDS011;6279;42.192;24.326;2022-09-09T15:08:35;6.72;;;4.75;;
12429;SDS011;6279;42.192;24.326;2022-09-09T15:11:01;12.32;;;5.18;;
12429;SDS011;6279;42.192;24.326;2022-09-09T15:13:28;5.38;;;4.88;;
12429;SDS011;6279;42.192;24.326;2022-09-09T15:15:53;9.05;;;4.90;;
12429;SDS011;6279;42.192;24.326;2022-09-09T15:18:19;10.18;;;4.72;;
12429;SDS011;6279;42.192;24.326;2022-09-09T15:20:45;9.85;;;5.03;;
12429;SDS011;6279;42.192;24.326;2022-09-09T15:23:11;7.03;;;4.80;;
12429;SDS011;6279;42.192;24.326;2022-09-09T15:25:37;10.98;;;5.07;;
12429;SDS011;6279;42.192;24.326;2022-09-09T15:28:03;6.90;;;5.55;;
12429;SDS011;6279;42.192;24.326;2022-09-09T15:30:28;11.05;;;5.32;;
12429;SDS011;6279;42.192;24.326;2022-09-09T15:32:54;9.32;;;5.10;;
12429;SDS011;6279;42.192;24.326;2022-09-09T15:35:19;10.68;;;5.65;;
12429;SDS011;6279;42.192;24.326;2022-09-09T15:37:45;12.63;;;5.18;;
12429;SDS011;6279;42.192;24.326;2022-09-09T15:40:10;8.70;;;5.43;;
12429;SDS011;6279;42.192;24.326;2022-09-09T15:42:35;10.48;;;5.60;;
12429;SDS011;6279;42.192;24.326;2022-09-09T15:45:01;9.88;;;5.75;;
12429;SDS011;6279;42.192;24.326;2022-09-09T15:47:26;7.53;;;5.32;;
12429;SDS011;6279;42.192;24.326;2022-09-09T15:49:52;8.57;;;5.32;;
12429;SDS011;6279;42.192;24.326;2022-09-09T15:52:17;7.65;;;5.57;;
12429;SDS011;6279;42.192;24.326;2022-09-09T15:54:43;9.23;;;4.70;;
12429;SDS011;6279;42.192;24.326;2022-09-09T15:57:10;9.07;;;5.65;;
12429;SDS011;6279;42.192;24.326;2022-09-09T15:59:37;11.18;;;5.47;;
12429;SDS011;6279;42.192;24.326;2022-09-09T16:02:03;5.50;;;4.85;;
12429;SDS011;6279;42.192;24.326;2022-09-09T16:04:30;6.82;;;4.82;;
12429;SDS011;6279;42.192;24.326;2022-09-09T16:07:05;6.80;;;5.47;;
12429;SDS011;6279;42.192;24.326;2022-09-09T16:09:31;7.60;;;5.57;;
12429;SDS011;6279;42.192;24.326;2022-09-09T16:11:57;6.95;;;5.80;;
12429;SDS011;6279;42.192;24.326;2022-09-09T16:14:25;10.88;;;5.75;;
12429;SDS011;6279;42.192;24.326;2022-09-09T16:16:51;10.27;;;5.63;;
12429;SDS011;6279;42.192;24.326;2022-09-09T16:19:17;10.88;;;6.13;;
12429;SDS011;6279;42.192;24.326;2022-09-09T16:21:43;9.85;;;6.47;;
12429;SDS011;6279;42.192;24.326;2022-09-09T16:24:11;15.23;;;12.07;;
12429;SDS011;6279;42.192;24.326;2022-09-09T16:26:39;14.23;;;9.32;;
12429;SDS011;6279;42.192;24.326;2022-09-09T16:29:08;14.30;;;7.93;;
12429;SDS011;6279;42.192;24.326;2022-09-09T16:31:34;19.45;;;10.48;;
12429;SDS011;6279;42.192;24.326;2022-09-09T16:33:59;10.60;;;7.10;;
12429;SDS011;6279;42.192;24.326;2022-09-09T16:36:25;15.20;;;9.73;;
12429;SDS011;6279;42.192;24.326;2022-09-09T16:38:58;13.07;;;8.70;;
12429;SDS011;6279;42.192;24.326;2022-09-09T16:41:26;20.92;;;9.18;;
12429;SDS011;6279;42.192;24.326;2022-09-09T16:44:00;16.55;;;8.48;;
12429;SDS011;6279;42.192;24.326;2022-09-09T16:46:30;24.95;;;13.68;;
12429;SDS011;6279;42.192;24.326;2022-09-09T16:48:59;22.10;;;14.45;;
12429;SDS011;6279;42.192;24.326;2022-09-09T16:51:26;20.90;;;12.43;;
12429;SDS011;6279;42.192;24.326;2022-09-09T16:53:53;25.92;;;13.70;;
12429;SDS011;6279;42.192;24.326;2022-09-09T16:56:20;33.80;;;18.38;;
12429;SDS011;6279;42.192;24.326;2022-09-09T16:58:50;26.23;;;14.18;;
12429;SDS011;6279;42.192;24.326;2022-09-09T17:01:17;24.45;;;14.70;;
12429;SDS011;6279;42.192;24.326;2022-09-09T17:03:42;26.00;;;12.25;;
12429;SDS011;6279;42.192;24.326;2022-09-09T17:06:08;19.95;;;11.70;;
12429;SDS011;6279;42.192;24.326;2022-09-09T17:08:38;19.60;;;10.00;;
12429;SDS011;6279;42.192;24.326;2022-09-09T17:11:10;15.65;;;9.77;;
12429;SDS011;6279;42.192;24.326;2022-09-09T17:13:43;13.90;;;9.07;;